ΕΜΥ, Εθνική Μετεωρολογική Υπηρεσία - Δελτία Καιρού, Προγνώσεις

ΑΕΡΟΝΑΥΤΙΛΙΑ

GREEK AIRPORTS CODES

TAF LGTT 240400Z 2406/2415 03010KT 9999 FEW025 TEMPO 2409/2415 03012G22KT PROB30 TEMPO 2410/2415 5000 SHRA FEW018CB BKN025 BKN050=

EUROPEAN AIRPORTS CODES

LCLK 240500Z 16004KT 110V200 CAVOK 26/19 Q1009 NOSIG=